Time;durP1;ratioP1;P1;durP2;ratioP2;P2;SDS_P1;SDS_P2;PMS_P1;PMS_P2;Temp;Humidity;BMP_temperature;BMP_pressure;BME280_temperature;BME280_humidity;BME280_pressure;Samples;Min_cycle;Max_cycle;Signal;HPM_P1;HPM_P2
2022/03/06 00:01:44;;;;;;;;;93.50;79.75;;;;;8.85;68.72;101407.41;5015806;28;45517;-81
2022/03/06 00:04:09;;;;;;;;;89.50;75.00;;;;;9.05;68.70;101444.31;5014816;28;46583;-80
2022/03/06 00:06:35;;;;;;;;;90.67;75.67;;;;;8.86;68.47;101417.94;5014547;28;45535;-83
2022/03/06 00:09:00;;;;;;;;;94.33;79.67;;;;;8.32;68.46;101329.47;5014433;28;45380;-82
2022/03/06 00:11:25;;;;;;;;;91.00;75.75;;;;;8.73;68.23;101405.94;5014465;28;45299;-80
2022/03/06 00:13:51;;;;;;;;;89.33;75.67;;;;;8.88;68.39;101434.69;5014582;28;46343;-82
2022/03/06 00:16:16;;;;;;;;;90.75;75.75;;;;;8.74;68.24;101423.47;4996722;28;45417;-80
2022/03/06 00:18:42;;;;;;;;;86.50;68.25;;;;;8.36;68.30;101357.63;5014456;28;45469;-80
2022/03/06 00:21:09;;;;;;;;;94.00;80.00;;;;;8.87;68.28;101451.25;5014429;28;45502;-81
2022/03/06 00:23:34;;;;;;;;;90.25;75.75;;;;;8.84;68.36;101452.78;5014241;28;45666;-81
2022/03/06 00:26:00;;;;;;;;;89.50;76.50;;;;;8.82;68.27;101454.41;5014541;28;45586;-81
2022/03/06 00:28:25;;;;;;;;;93.00;73.25;;;;;8.19;68.24;101347.16;5014915;28;45527;-80
2022/03/06 00:30:51;;;;;;;;;86.67;68.33;;;;;8.61;67.98;101436.72;5014700;28;45296;-84
2022/03/06 00:33:16;;;;;;;;;90.25;73.00;;;;;8.65;67.93;101443.94;5014204;28;45380;-81
2022/03/06 00:35:41;;;;;;;;;88.33;69.33;;;;;7.73;68.01;101283.56;4996473;28;45440;-84
2022/03/06 00:38:07;;;;;;;;;86.33;70.67;;;;;8.08;67.55;101350.94;5014072;28;45527;-81
2022/03/06 00:40:32;;;;;;;;;90.00;73.25;;;;;8.66;67.79;101448.34;5013887;28;45463;-87
2022/03/06 00:42:57;;;;;;;;;92.00;74.00;;;;;8.44;67.86;101421.84;5014510;28;45600;-81
2022/03/06 00:45:23;;;;;;;;;89.33;69.67;;;;;8.12;67.77;101380.75;5014008;28;45520;-82
2022/03/06 00:47:49;;;;;;;;;89.25;71.25;;;;;8.07;67.67;101366.53;5014259;28;45427;-82
2022/03/06 00:50:14;;;;;;;;;89.50;73.50;;;;;8.33;67.76;101421.22;5014615;28;45313;-83
2022/03/06 00:52:40;;;;;;;;;83.25;66.25;;;;;8.45;67.74;101448.09;5014686;28;45425;-86
2022/03/06 00:55:06;;;;;;;;;88.25;72.75;;;;;8.51;67.51;101458.91;5014049;28;45312;-84
2022/03/06 00:57:32;;;;;;;;;83.50;63.50;;;;;8.50;67.22;101457.13;5014888;28;45654;-89
2022/03/06 00:59:57;;;;;;;;;89.00;68.75;;;;;8.48;67.05;101458.75;5014391;28;45504;-88
2022/03/06 01:02:23;;;;;;;;;81.33;63.67;;;;;7.99;67.15;101382.72;5014167;28;45451;-89
2022/03/06 01:04:48;;;;;;;;;88.25;70.25;;;;;8.09;66.92;101402.47;5014884;28;45509;-87
2022/03/06 01:07:14;;;;;;;;;83.50;62.50;;;;;8.01;66.75;101396.78;5015293;28;45629;-87
2022/03/06 01:09:39;;;;;;;;;85.75;67.25;;;;;8.38;66.80;101464.31;5014157;28;45365;-85
2022/03/06 01:12:05;;;;;;;;;80.00;63.67;;;;;8.19;66.67;101432.66;5014048;28;45452;-81
2022/03/06 01:14:30;;;;;;;;;83.25;64.25;;;;;7.49;66.61;101314.50;5013606;28;45457;-83
2022/03/06 01:16:56;;;;;;;;;86.00;63.50;;;;;8.18;66.76;101443.97;5013848;28;45473;-88
2022/03/06 01:19:21;;;;;;;;;85.67;65.00;;;;;7.76;66.41;101368.34;5014415;28;45326;-87
2022/03/06 01:21:47;;;;;;;;;88.67;68.33;;;;;7.85;66.68;101388.91;5013833;28;46207;-88
2022/03/06 01:24:12;;;;;;;;;84.75;64.75;;;;;7.69;66.76;101358.38;5013798;28;45526;-88
2022/03/06 01:26:38;;;;;;;;;84.00;63.50;;;;;8.26;66.53;101471.44;5014067;28;45380;-89
2022/03/06 01:29:04;;;;;;;;;81.67;63.00;;;;;8.22;66.06;101457.28;5013796;28;45361;-86
2022/03/06 01:31:29;;;;;;;;;82.00;63.75;;;;;8.06;66.33;101440.66;5013539;28;46509;-84
2022/03/06 01:33:55;;;;;;;;;84.33;64.67;;;;;8.18;66.19;101460.56;5013493;28;45349;-86
2022/03/06 01:36:20;;;;;;;;;84.25;62.25;;;;;8.15;65.80;101454.25;5013770;28;45813;-81
2022/03/06 01:38:45;;;;;;;;;81.33;61.33;;;;;7.79;65.49;101403.38;5013945;28;45314;-80
2022/03/06 01:41:10;;;;;;;;;82.33;63.33;;;;;8.11;65.13;101460.13;5013267;28;46693;-86
2022/03/06 01:43:36;;;;;;;;;82.67;62.00;;;;;8.07;65.03;101464.28;5014055;28;45513;-82
2022/03/06 01:46:01;;;;;;;;;81.00;62.33;;;;;7.54;64.79;101374.91;5013538;28;45420;-81
2022/03/06 01:48:27;;;;;;;;;79.50;61.25;;;;;8.01;65.03;101466.56;5013579;28;45525;-83
2022/03/06 01:50:52;;;;;;;;;83.67;61.33;;;;;7.65;65.17;101402.59;5012978;28;45478;-82
2022/03/06 01:53:17;;;;;;;;;80.00;61.33;;;;;7.97;64.87;101464.59;5013409;28;45544;-84
2022/03/06 01:55:43;;;;;;;;;84.00;64.00;;;;;7.80;64.79;101442.72;5013016;28;45631;-86
2022/03/06 01:58:10;;;;;;;;;77.25;60.00;;;;;7.91;64.56;101465.13;5014028;28;45636;-84
2022/03/06 02:00:43;;;;;;;;;84.25;63.00;;;;;7.87;64.27;101463.16;5013044;28;46690;-83
2022/03/06 02:03:09;;;;;;;;;85.00;63.25;;;;;7.36;64.45;101377.38;4995083;28;46006;-86
2022/03/06 02:05:34;;;;;;;;;82.50;62.25;;;;;7.78;64.40;101459.13;5014736;28;45343;-88
2022/03/06 02:08:00;;;;;;;;;82.00;62.50;;;;;7.30;64.14;101395.34;5016666;28;45460;-84
2022/03/06 02:10:25;;;;;;;;;82.75;64.25;;;;;7.59;64.12;101433.66;5016350;28;45544;-83
2022/03/06 02:12:51;;;;;;;;;82.75;63.00;;;;;7.59;64.20;101446.72;5016896;28;45378;-83
2022/03/06 02:15:17;;;;;;;;;80.75;61.75;;;;;7.40;64.38;101414.25;5017354;28;45521;-82
2022/03/06 02:17:44;;;;;;;;;86.25;66.75;;;;;7.16;64.00;101381.47;5016858;28;45346;-83
2022/03/06 02:20:11;;;;;;;;;87.00;66.75;;;;;7.14;64.04;101368.31;4998716;28;48313;-82
2022/03/06 02:22:39;;;;;;;;;81.25;64.00;;;;;7.42;64.39;101428.31;5016898;28;45740;-86
2022/03/06 02:25:10;;;;;;;;;81.75;63.25;;;;;7.45;63.86;101438.06;4998644;28;45420;-86
2022/03/06 02:27:36;;;;;;;;;82.25;63.75;;;;;7.40;64.13;101434.28;5016749;28;45586;-86
2022/03/06 02:30:11;;;;;;;;;81.50;61.00;;;;;7.29;63.90;101424.88;4998547;28;47960;-85
2022/03/06 02:32:37;;;;;;;;;79.00;61.00;;;;;7.29;63.51;101433.66;5016703;28;45335;-81
2022/03/06 02:35:03;;;;;;;;;76.75;59.25;;;;;6.86;63.24;101363.16;4998827;28;45479;-86
2022/03/06 02:37:29;;;;;;;;;82.75;62.00;;;;;7.37;63.53;101461.16;5016472;28;45494;-90
2022/03/06 02:39:54;;;;;;;;;84.00;63.00;;;;;7.35;63.64;101459.28;5015888;28;46445;-84
2022/03/06 02:42:28;;;;;;;;;77.00;60.75;;;;;7.22;63.45;101439.31;5016208;28;45475;-85
2022/03/06 02:44:54;;;;;;;;;73.50;56.75;;;;;7.28;63.38;101472.78;5016345;28;45309;-85
2022/03/06 02:47:20;;;;;;;;;78.25;62.50;;;;;6.70;63.15;101365.69;5016290;28;45355;-84
2022/03/06 02:49:45;;;;;;;;;74.50;59.25;;;;;6.58;62.71;101358.00;5015766;28;46354;-82
2022/03/06 02:52:11;;;;;;;;;83.50;61.75;;;;;6.79;62.90;101394.94;5015435;28;45411;-80
2022/03/06 02:54:36;;;;;;;;;78.67;62.00;;;;;6.73;62.90;101389.38;5015358;28;45497;-81
2022/03/06 02:57:04;;;;;;;;;76.75;60.50;;;;;6.75;62.95;101403.44;5015782;28;45400;-81
2022/03/06 02:59:30;;;;;;;;;76.75;61.50;;;;;6.96;62.71;101443.00;5015817;28;46367;-84
2022/03/06 03:01:55;;;;;;;;;78.00;61.00;;;;;6.91;63.25;101447.97;5015862;28;45346;-81
2022/03/06 03:04:21;;;;;;;;;78.25;59.50;;;;;6.08;63.29;101301.00;4998101;28;45477;-82
2022/03/06 03:06:50;;;;;;;;;82.50;63.25;;;;;6.94;63.50;101457.69;5016036;28;45270;-82
2022/03/06 03:09:17;;;;;;;;;76.25;62.00;;;;;6.94;63.25;101465.50;5016107;28;46419;-81
2022/03/06 03:11:42;;;;;;;;;83.25;64.50;;;;;6.75;63.15;101434.78;5015785;28;45613;-85
2022/03/06 03:14:07;;;;;;;;;73.75;58.75;;;;;6.36;63.33;101366.25;5015644;28;45290;-85
2022/03/06 03:16:33;;;;;;;;;75.67;61.00;;;;;6.38;63.21;101366.34;4996538;28;45440;-82
2022/03/06 03:18:58;;;;;;;;;74.33;60.00;;;;;6.79;63.41;101452.41;4997459;28;47052;-81
2022/03/06 03:21:23;;;;;;;;;79.33;62.00;;;;;6.71;63.64;101444.13;5015601;28;45324;-83
2022/03/06 03:23:49;;;;;;;;;77.75;62.75;;;;;6.29;63.49;101365.78;5015204;28;45583;-82
2022/03/06 03:26:14;;;;;;;;;76.00;61.00;;;;;6.35;63.63;101389.63;5015349;28;45235;-82
2022/03/06 03:28:39;;;;;;;;;77.00;61.00;;;;;6.62;63.51;101432.22;5015252;28;45389;-87
2022/03/06 03:31:05;;;;;;;;;80.33;61.67;;;;;6.78;63.79;101463.69;5015019;28;45358;-82
2022/03/06 03:33:30;;;;;;;;;77.25;61.50;;;;;6.65;63.46;101446.38;5015315;28;45314;-82
2022/03/06 03:35:56;;;;;;;;;78.50;61.25;;;;;6.63;63.78;101447.09;5015811;28;45607;-81
2022/03/06 03:38:22;;;;;;;;;79.00;62.75;;;;;6.72;63.52;101469.44;5015304;28;45479;-81
2022/03/06 03:40:47;;;;;;;;;77.75;60.50;;;;;6.68;63.94;101475.28;5015025;28;45315;-85
2022/03/06 03:43:13;;;;;;;;;79.00;61.50;;;;;6.52;63.69;101449.03;5015463;28;45504;-83
2022/03/06 03:45:38;;;;;;;;;78.50;61.00;;;;;6.23;63.66;101405.44;4997405;28;45344;-85
2022/03/06 03:48:04;;;;;;;;;76.50;57.25;;;;;6.36;63.39;101435.84;5015092;28;45391;-84
2022/03/06 03:50:29;;;;;;;;;73.75;58.25;;;;;6.59;63.63;101481.66;5014775;28;45508;-86
2022/03/06 03:52:55;;;;;;;;;76.50;60.25;;;;;5.41;63.51;101281.09;5015226;28;45409;-84
2022/03/06 03:55:20;;;;;;;;;76.00;60.67;;;;;5.28;63.68;101266.41;5014868;28;45468;-81
2022/03/06 03:57:45;;;;;;;;;80.00;62.00;;;;;6.49;63.31;101492.31;4997136;28;47289;-81
2022/03/06 04:00:11;;;;;;;;;81.00;63.00;;;;;6.38;63.48;101471.66;5014858;28;45432;-88
2022/03/06 04:02:37;;;;;;;;;76.75;61.50;;;;;6.17;63.48;101447.72;5014641;28;45503;-81
2022/03/06 04:05:03;;;;;;;;;81.00;63.75;;;;;6.37;63.54;101484.63;5014670;28;45746;-84
2022/03/06 04:07:28;;;;;;;;;80.75;64.25;;;;;6.34;63.54;101493.16;5014676;28;46631;-84
2022/03/06 04:09:54;;;;;;;;;83.33;65.67;;;;;6.30;63.47;101493.75;5014201;28;45298;-83
2022/03/06 04:12:19;;;;;;;;;81.67;62.33;;;;;6.10;63.73;101462.88;5015065;28;45442;-83
2022/03/06 04:14:45;;;;;;;;;82.33;64.00;;;;;5.66;63.56;101390.47;5014854;28;45284;-81
2022/03/06 04:17:10;;;;;;;;;77.75;61.75;;;;;5.62;63.71;101394.59;5014526;28;45377;-82
2022/03/06 04:19:35;;;;;;;;;82.50;63.00;;;;;5.96;63.78;101459.41;4996588;28;45466;-83
2022/03/06 04:22:01;;;;;;;;;76.50;59.50;;;;;6.18;63.76;101500.81;5014499;28;45433;-81
2022/03/06 04:24:26;;;;;;;;;76.00;60.50;;;;;5.32;63.46;101358.69;5013979;28;45563;-86
2022/03/06 04:26:52;;;;;;;;;76.75;61.00;;;;;6.14;64.13;101504.94;5014328;28;45481;-82
2022/03/06 04:29:18;;;;;;;;;79.25;62.00;;;;;5.72;63.82;101439.53;5014183;28;45290;-84
2022/03/06 04:31:43;;;;;;;;;75.25;57.75;;;;;6.13;63.99;101517.91;5014940;28;45844;-89
2022/03/06 04:34:08;;;;;;;;;79.67;61.67;;;;;5.98;64.28;101496.94;5014676;28;45223;-86
2022/03/06 04:36:34;;;;;;;;;80.00;62.33;;;;;6.08;64.21;101527.13;5014755;28;45575;-83
2022/03/06 04:38:59;;;;;;;;;77.33;59.33;;;;;5.90;64.13;101498.09;5014158;28;45398;-86
2022/03/06 04:41:24;;;;;;;;;77.00;62.00;;;;;5.56;64.12;101437.59;5014359;28;45466;-81
2022/03/06 04:43:52;;;;;;;;;77.75;60.75;;;;;4.90;64.28;101332.53;4996390;28;45479;-83
2022/03/06 04:46:17;;;;;;;;;78.50;61.25;;;;;5.75;64.24;101497.09;5014602;28;45590;-83
2022/03/06 04:48:43;;;;;;;;;82.00;62.25;;;;;5.23;64.44;101411.16;5014576;28;45419;-89
2022/03/06 04:51:08;;;;;;;;;80.33;61.67;;;;;5.44;64.34;101449.03;5014830;28;45610;-87
2022/03/06 04:53:33;;;;;;;;;75.75;61.00;;;;;5.81;64.72;101520.97;5014257;28;45289;-82
2022/03/06 04:55:59;;;;;;;;;78.50;62.75;;;;;5.31;64.67;101428.16;5013554;28;45430;-82
2022/03/06 04:58:24;;;;;;;;;81.50;64.25;;;;;5.72;64.87;101520.38;5013623;28;45242;-80
2022/03/06 05:00:50;;;;;;;;;81.33;63.00;;;;;5.31;64.79;101440.31;5013647;28;45290;-81
2022/03/06 05:03:15;;;;;;;;;85.67;65.33;;;;;5.32;64.64;101460.34;5013384;28;45516;-81
2022/03/06 05:05:41;;;;;;;;;79.00;62.25;;;;;5.70;64.68;101528.09;5013514;28;45458;-81
2022/03/06 05:08:06;;;;;;;;;81.00;62.50;;;;;5.18;64.99;101446.41;5013815;28;45546;-80
2022/03/06 05:10:32;;;;;;;;;83.00;63.00;;;;;5.15;64.98;101444.50;5013336;28;45455;-81
2022/03/06 05:12:57;;;;;;;;;78.00;62.50;;;;;5.33;64.84;101477.81;5014050;28;45495;-81
2022/03/06 05:15:22;;;;;;;;;87.00;64.75;;;;;5.00;65.13;101417.41;5013335;28;45481;-83
2022/03/06 05:17:48;;;;;;;;;77.67;61.00;;;;;5.64;64.93;101541.63;5013652;28;45286;-81
2022/03/06 05:20:14;;;;;;;;;79.50;63.00;;;;;5.35;65.12;101497.06;5013641;28;45396;-81
2022/03/06 05:22:40;;;;;;;;;84.25;64.25;;;;;4.94;64.94;101427.41;5013911;28;45369;-82
2022/03/06 05:25:07;;;;;;;;;79.75;61.00;;;;;5.58;65.11;101546.44;5013420;28;46125;-87
2022/03/06 05:27:33;;;;;;;;;82.00;63.75;;;;;5.56;65.08;101542.81;5013088;28;45420;-86
2022/03/06 05:29:58;;;;;;;;;81.00;64.00;;;;;5.39;65.29;101522.53;5013914;28;45483;-84
2022/03/06 05:32:24;;;;;;;;;84.00;63.33;;;;;5.23;65.47;101491.03;5014111;28;45564;-79
2022/03/06 05:34:49;;;;;;;;;80.33;64.00;;;;;5.14;65.17;101484.38;5013622;28;46151;-79
2022/03/06 05:37:14;;;;;;;;;86.33;63.00;;;;;5.51;65.35;101562.44;5013376;28;45305;-88
2022/03/06 05:39:40;;;;;;;;;84.75;64.75;;;;;5.14;65.53;101488.69;5012460;28;45234;-81
2022/03/06 05:42:06;;;;;;;;;80.25;61.00;;;;;4.88;65.61;101453.06;5013327;28;45287;-81
2022/03/06 05:44:31;;;;;;;;;80.75;62.50;;;;;5.07;65.42;101484.75;5013567;28;46613;-88
2022/03/06 05:46:56;;;;;;;;;72.50;58.00;;;;;5.41;65.45;101567.84;5013130;28;45347;-79
2022/03/06 05:49:22;;;;;;;;;75.33;60.67;;;;;5.38;65.62;101546.78;5013005;28;45361;-81
2022/03/06 05:51:47;;;;;;;;;82.25;66.00;;;;;4.97;65.62;101486.63;5012698;28;45503;-80
2022/03/06 05:54:13;;;;;;;;;81.25;60.25;;;;;5.32;65.74;101554.16;5012324;28;45592;-81
2022/03/06 05:56:39;;;;;;;;;80.33;65.00;;;;;4.71;65.91;101450.97;5013142;28;45370;-80
2022/03/06 05:59:05;;;;;;;;;80.00;62.75;;;;;5.30;65.61;101561.91;5013333;28;45590;-83
2022/03/06 06:01:32;;;;;;;;;79.00;61.25;;;;;5.30;65.78;101561.91;5013540;28;45293;-87
2022/03/06 06:03:59;;;;;;;;;84.00;65.25;;;;;4.85;65.74;101489.28;5013049;28;46615;-83
2022/03/06 06:06:25;;;;;;;;;80.25;65.00;;;;;4.58;65.83;101449.22;5013220;28;45440;-84
2022/03/06 06:08:51;;;;;;;;;81.25;64.75;;;;;3.93;65.72;101355.34;5013037;28;45295;-86
2022/03/06 06:11:18;;;;;;;;;82.25;63.75;;;;;5.26;65.86;101579.81;5013186;28;45446;-79
2022/03/06 06:13:44;;;;;;;;;79.25;62.00;;;;;4.69;66.08;101491.63;5013188;28;45636;-82
2022/03/06 06:16:09;;;;;;;;;81.50;63.25;;;;;4.95;65.85;101533.41;5013182;28;45301;-86
2022/03/06 06:18:34;;;;;;;;;81.75;65.00;;;;;5.07;65.96;101575.03;5013023;28;45682;-80
2022/03/06 06:21:00;;;;;;;;;82.33;65.33;;;;;4.57;66.13;101476.03;5013041;28;45433;-79
2022/03/06 06:23:25;;;;;;;;;79.67;63.00;;;;;5.03;66.09;101557.41;5012315;28;45534;-83
2022/03/06 06:25:50;;;;;;;;;79.50;64.50;;;;;4.68;66.01;101510.63;5012395;28;45546;-81
2022/03/06 06:28:16;;;;;;;;;82.33;65.00;;;;;4.57;66.10;101489.97;5013277;28;45349;-85
2022/03/06 06:30:41;;;;;;;;;82.67;65.00;;;;;4.82;66.32;101541.16;5013293;28;45444;-86
2022/03/06 06:33:07;;;;;;;;;78.25;61.00;;;;;4.97;66.20;101559.56;4995102;28;46908;-82
2022/03/06 06:35:34;;;;;;;;;81.00;63.75;;;;;5.13;66.14;101586.81;5012856;28;45376;-87
2022/03/06 06:38:00;;;;;;;;;84.00;65.50;;;;;5.08;66.34;101577.75;5012932;28;46007;-82
2022/03/06 06:40:25;;;;;;;;;82.25;63.75;;;;;5.14;66.12;101582.50;5012600;28;45397;-87
2022/03/06 06:42:50;;;;;;;;;81.00;63.00;;;;;4.90;66.11;101540.00;5012451;28;46653;-87
2022/03/06 06:45:16;;;;;;;;;83.67;65.00;;;;;5.18;66.23;101594.94;5012860;28;45415;-87
2022/03/06 06:47:41;;;;;;;;;79.67;63.00;;;;;5.25;66.08;101591.06;4995540;28;45443;-81
2022/03/06 06:50:07;;;;;;;;;76.00;61.25;;;;;4.81;66.25;101503.78;5012746;28;45303;-88
2022/03/06 06:52:32;;;;;;;;;86.75;67.75;;;;;4.82;66.25;101505.59;4998064;28;47173;-80
2022/03/06 06:54:58;;;;;;;;;83.25;65.25;;;;;5.37;65.97;101597.13;5015281;28;45407;-81
2022/03/06 06:57:24;;;;;;;;;81.67;66.00;;;;;4.82;66.04;101499.50;5015795;28;45343;-83
2022/03/06 06:59:49;;;;;;;;;80.25;63.25;;;;;5.11;65.71;101540.56;5016122;28;45702;-81
2022/03/06 07:02:14;;;;;;;;;85.67;66.33;;;;;5.14;65.26;101557.34;5015541;28;46463;-84
2022/03/06 07:04:40;;;;;;;;;79.75;62.75;;;;;5.12;65.28;101564.16;5016158;28;45730;-81
2022/03/06 07:07:05;;;;;;;;;88.33;67.67;;;;;4.97;65.53;101552.63;5016269;28;45366;-88
2022/03/06 07:09:30;;;;;;;;;81.00;63.67;;;;;5.17;65.67;101608.75;5015527;28;45401;-80
2022/03/06 07:11:56;;;;;;;;;82.50;63.75;;;;;5.07;65.87;101596.78;5015751;28;46178;-87
2022/03/06 07:14:21;;;;;;;;;88.33;65.67;;;;;5.02;65.74;101576.41;5015691;28;48530;-81
2022/03/06 07:16:47;;;;;;;;;83.00;64.67;;;;;5.05;65.85;101581.84;5015971;28;45412;-83
2022/03/06 07:19:13;;;;;;;;;81.75;64.00;;;;;5.22;65.87;101604.78;4998170;28;45584;-87
2022/03/06 07:21:39;;;;;;;;;83.25;63.50;;;;;5.24;65.96;101613.59;4997722;28;48329;-81
2022/03/06 07:24:06;;;;;;;;;93.00;68.25;;;;;4.33;65.63;101441.38;5015785;28;45498;-84
2022/03/06 07:26:31;;;;;;;;;87.00;66.75;;;;;5.35;66.05;101622.16;4998041;28;45425;-82
2022/03/06 07:28:56;;;;;;;;;79.00;64.00;;;;;4.96;65.51;101545.63;5015908;28;45495;-83
2022/03/06 07:31:21;;;;;;;;;78.67;64.00;;;;;4.65;66.02;101486.22;5015339;28;45282;-83
2022/03/06 07:33:47;;;;;;;;;89.33;69.00;;;;;4.76;65.74;101504.28;5015481;28;45321;-79
2022/03/06 07:36:12;;;;;;;;;81.50;63.75;;;;;5.54;65.62;101648.72;5015498;28;45231;-82
2022/03/06 07:38:38;;;;;;;;;74.33;59.00;;;;;5.47;65.51;101637.75;4997567;28;45318;-85
2022/03/06 07:41:03;;;;;;;;;85.75;65.50;;;;;5.09;65.07;101566.53;5015541;28;45995;-88
2022/03/06 07:43:29;;;;;;;;;82.00;63.75;;;;;5.50;64.59;101638.88;5015274;28;45410;-82
2022/03/06 07:45:55;;;;;;;;;85.25;65.00;;;;;5.48;65.01;101653.50;5016180;28;45468;-88
2022/03/06 07:48:21;;;;;;;;;84.50;66.00;;;;;5.48;64.98;101660.44;5016512;28;45337;-90
2022/03/06 07:50:46;;;;;;;;;81.00;63.50;;;;;5.17;64.88;101599.25;5016366;28;46766;-92
2022/03/06 07:53:12;;;;;;;;;85.67;67.33;;;;;4.23;64.81;101438.94;5015871;28;45373;-91
2022/03/06 07:55:37;;;;;;;;;86.33;66.00;;;;;5.52;64.78;101665.97;5015989;28;45422;-91
2022/03/06 07:58:02;;;;;;;;;82.00;65.00;;;;;4.99;65.11;101568.41;5016213;28;45433;-93
2022/03/06 08:00:28;;;;;;;;;80.00;62.00;;;;;5.35;64.71;101628.28;5017245;28;45481;-92
2022/03/06 08:02:56;;;;;;;;;86.00;65.50;;;;;5.39;64.62;101639.84;5015166;28;45361;-90
2022/03/06 08:05:21;;;;;;;;;81.25;64.00;;;;;5.08;64.67;101590.78;4998256;28;45498;-88
2022/03/06 08:07:47;;;;;;;;;84.75;64.75;;;;;5.51;64.52;101664.13;5015790;28;45487;-92
2022/03/06 08:10:12;;;;;;;;;83.75;63.50;;;;;5.59;64.63;101669.88;5014752;28;46183;-84
2022/03/06 08:12:38;;;;;;;;;78.25;62.75;;;;;5.44;64.42;101641.06;5015032;28;45441;-79
2022/03/06 08:15:04;;;;;;;;;78.25;63.25;;;;;5.43;64.83;101647.06;5015326;28;45400;-85
2022/03/06 08:17:29;;;;;;;;;85.75;62.75;;;;;5.07;64.46;101578.53;5015660;28;45453;-86
2022/03/06 08:19:55;;;;;;;;;87.00;65.00;;;;;5.14;64.54;101583.41;5014992;28;45383;-88
2022/03/06 08:22:21;;;;;;;;;86.00;66.00;;;;;5.75;64.44;101687.50;5014450;28;45353;-79
2022/03/06 08:24:47;;;;;;;;;85.00;66.50;;;;;5.23;64.22;101608.28;5014626;28;45507;-86
2022/03/06 08:27:12;;;;;;;;;83.00;63.25;;;;;5.76;64.58;101694.50;5014905;28;45340;-80
2022/03/06 08:29:37;;;;;;;;;84.33;64.00;;;;;4.69;64.02;101497.75;5014302;28;45554;-79
2022/03/06 08:32:04;;;;;;;;;81.33;63.00;;;;;5.70;63.93;101662.00;5014628;28;45484;-86
2022/03/06 08:34:29;;;;;;;;;79.50;62.50;;;;;5.42;63.50;101608.78;5014756;28;45540;-86
2022/03/06 08:36:54;;;;;;;;;88.33;67.00;;;;;5.39;63.30;101611.16;5014996;28;45471;-88
2022/03/06 08:39:19;;;;;;;;;79.33;62.33;;;;;5.80;63.41;101678.28;5014454;28;45313;-82
2022/03/06 08:41:46;;;;;;;;;81.00;62.00;;;;;5.18;63.48;101564.56;4996959;28;45333;-90
2022/03/06 08:44:12;;;;;;;;;75.50;59.00;;;;;5.52;62.80;101603.38;5014952;28;45514;-80
2022/03/06 08:46:37;;;;;;;;;76.50;59.50;;;;;5.86;62.79;101657.81;5015374;28;45265;-88
2022/03/06 08:49:03;;;;;;;;;79.00;63.00;;;;;6.17;62.68;101703.50;5014500;28;45521;-88
2022/03/06 08:51:28;;;;;;;;;73.50;58.25;;;;;6.19;62.23;101701.91;5014145;28;45332;-81
2022/03/06 08:53:53;;;;;;;;;72.67;58.67;;;;;6.11;61.50;101678.72;5014265;28;45483;-79
2022/03/06 08:56:19;;;;;;;;;76.50;58.75;;;;;6.07;61.48;101674.09;5014390;28;45522;-83
2022/03/06 08:58:44;;;;;;;;;76.50;59.25;;;;;5.91;61.08;101651.22;5014457;28;45489;-80
2022/03/06 09:01:09;;;;;;;;;71.67;56.67;;;;;6.28;61.25;101716.38;5014366;28;46913;-90
2022/03/06 09:03:35;;;;;;;;;77.50;60.00;;;;;6.17;61.08;101682.63;5014656;28;45521;-85
2022/03/06 09:06:00;;;;;;;;;77.50;59.75;;;;;6.35;60.96;101705.53;5014758;28;45765;-82
2022/03/06 09:08:26;;;;;;;;;77.50;60.25;;;;;6.38;60.87;101708.34;5013688;28;45481;-88
2022/03/06 09:10:51;;;;;;;;;68.67;55.00;;;;;6.02;59.98;101639.84;5014226;28;45305;-79
2022/03/06 09:13:16;;;;;;;;;73.25;57.25;;;;;6.46;59.83;101712.41;5014268;28;45452;-88
2022/03/06 09:15:42;;;;;;;;;69.00;55.33;;;;;6.50;59.87;101717.00;4995447;28;45543;-89
2022/03/06 09:18:07;;;;;;;;;66.00;52.33;;;;;6.37;59.62;101681.34;5013990;28;45494;-79
2022/03/06 09:20:32;;;;;;;;;63.33;49.67;;;;;6.61;59.28;101713.41;5014129;28;45496;-85
2022/03/06 09:22:58;;;;;;;;;62.67;47.67;;;;;6.62;58.88;101712.59;5014230;28;45366;-84
2022/03/06 09:25:24;;;;;;;;;64.67;54.00;;;;;6.73;59.24;101698.53;5017727;28;45322;-91
2022/03/06 09:27:49;;;;;;;;;73.00;56.00;;;;;6.79;58.87;101705.84;5016831;28;45525;-89
2022/03/06 09:30:15;;;;;;;;;72.50;57.50;;;;;6.59;58.71;101657.53;5014579;28;45318;-91
2022/03/06 09:32:41;;;;;;;;;66.50;52.00;;;;;6.69;58.75;101673.00;5014427;28;45298;-90
2022/03/06 09:35:08;;;;;;;;;70.25;55.50;;;;;6.89;58.33;101700.41;4996632;28;45292;-89
2022/03/06 09:37:33;;;;;;;;;68.50;54.50;;;;;6.87;57.96;101701.13;5014584;28;46505;-89
2022/03/06 09:40:00;;;;;;;;;71.00;55.33;;;;;6.80;58.10;101678.94;5013849;28;45453;-89
2022/03/06 09:42:25;;;;;;;;;64.50;52.25;;;;;7.02;57.54;101712.56;5014665;28;45624;-87
2022/03/06 09:44:50;;;;;;;;;68.33;54.33;;;;;7.03;57.63;101705.63;5014425;28;45542;-90
2022/03/06 09:47:17;;;;;;;;;70.25;55.50;;;;;7.07;57.55;101712.88;5013895;28;45416;-90
2022/03/06 09:49:44;;;;;;;;;62.75;52.00;;;;;7.13;57.19;101718.47;5014396;28;45681;-90
2022/03/06 09:52:11;;;;;;;;;63.00;51.25;;;;;7.15;56.35;101709.94;5013874;28;45378;-87
2022/03/06 09:54:36;;;;;;;;;64.25;52.75;;;;;7.23;56.37;101720.88;5013979;28;45356;-88
2022/03/06 09:57:02;;;;;;;;;66.00;53.25;;;;;7.30;56.67;101723.09;5014310;28;45360;-91
2022/03/06 09:59:30;;;;;;;;;64.25;51.75;;;;;7.32;56.31;101717.94;5014531;28;45289;-91
2022/03/06 10:01:59;;;;;;;;;64.25;49.75;;;;;7.35;55.73;101710.31;5014409;28;45542;-91
2022/03/06 10:04:26;;;;;;;;;61.00;51.00;;;;;7.04;55.49;101648.22;5014357;28;45280;-90
2022/03/06 10:07:13;;;;;;;;;61.00;47.75;;;;;7.40;55.53;101706.25;5013907;28;45356;-91
2022/03/06 10:09:49;;;;;;;;;56.25;46.25;;;;;7.62;54.96;101730.31;5013910;28;45420;-87
2022/03/06 10:12:43;;;;;;;;;51.25;42.00;;;;;7.66;54.39;101724.47;5014014;28;45520;-91
2022/03/06 10:15:10;;;;;;;;;56.50;44.75;;;;;7.62;54.20;101714.63;5011563;28;45800;-91
2022/03/06 10:17:35;;;;;;;;;60.75;48.25;;;;;7.59;54.40;101700.47;5013957;28;45435;-84
2022/03/06 10:20:00;;;;;;;;;56.67;47.67;;;;;7.82;54.22;101726.31;4996396;28;45353;-91
2022/03/06 10:22:34;;;;;;;;;49.67;42.67;;;;;7.55;53.12;101683.66;5013853;28;45352;-91
2022/03/06 10:25:06;;;;;;;;;48.00;41.50;;;;;7.79;52.89;101712.16;5013788;28;45533;-89
2022/03/06 10:27:42;;;;;;;;;44.75;39.75;;;;;7.22;52.16;101594.47;5016768;28;47240;-89
2022/03/06 10:30:29;;;;;;;;;46.50;39.25;;;;;7.99;52.09;101727.34;5017164;28;45751;-88
2022/03/06 10:32:56;;;;;;;;;42.00;37.00;;;;;7.94;51.30;101692.16;5017456;28;45446;-91
2022/03/06 10:35:31;;;;;;;;;43.00;35.75;;;;;8.11;51.43;101715.00;5017327;28;45477;-93
2022/03/06 10:37:57;;;;;;;;;44.00;38.50;;;;;8.15;51.21;101718.72;5017131;28;45512;-89
2022/03/06 10:40:37;;;;;;;;;41.75;38.00;;;;;7.80;50.69;101638.06;5016736;28;45283;-83
2022/03/06 10:43:25;;;;;;;;;38.00;35.50;;;;;8.13;50.68;101696.78;5017216;28;45401;-89
2022/03/06 10:46:04;;;;;;;;;35.75;32.75;;;;;8.39;50.26;101716.69;5017789;28;45274;-87
2022/03/06 10:48:29;;;;;;;;;44.75;38.75;;;;;8.24;50.04;101685.22;5017008;28;46301;-92
2022/03/06 10:51:00;;;;;;;;;36.33;34.67;;;;;8.52;49.56;101727.03;5016906;28;45275;-89
2022/03/06 10:53:28;;;;;;;;;41.25;35.75;;;;;8.55;49.55;101727.22;4998973;28;45695;-87
2022/03/06 10:55:54;;;;;;;;;41.50;36.50;;;;;8.57;49.29;101711.59;4999283;28;45515;-90
2022/03/06 10:58:20;;;;;;;;;41.50;36.75;;;;;8.69;48.85;101715.84;5016866;28;46087;-91
2022/03/06 11:00:47;;;;;;;;;37.25;31.75;;;;;8.20;48.93;101621.28;5016924;28;45720;-87
2022/03/06 11:03:13;;;;;;;;;37.50;33.75;;;;;8.67;48.70;101701.75;5016690;28;45240;-84
2022/03/06 11:05:43;;;;;;;;;40.75;37.00;;;;;8.88;48.06;101730.00;5020776;28;45649;-79
2022/03/06 11:08:13;;;;;;;;;35.50;34.25;;;;;8.64;48.11;101680.59;5016898;28;45591;-88
2022/03/06 11:10:41;;;;;;;;;38.25;35.25;;;;;8.34;47.45;101619.47;5016276;28;45606;-88
2022/03/06 11:13:07;;;;;;;;;35.75;32.50;;;;;8.89;47.63;101718.69;5016715;28;45311;-87